Time;durP1;ratioP1;P1;durP2;ratioP2;P2;SDS_P1;SDS_P2;PMS_P1;PMS_P2;Temp;Humidity;BMP_temperature;BMP_pressure;BME280_temperature;BME280_humidity;BME280_pressure;Samples;Min_cycle;Max_cycle;Signal;HPM_P1;HPM_P2
2023/08/22 00:00:24;;;;;;;4.10;1.00;;;21.10;81.70;;;;;;5039115;28;20100;-84
2023/08/22 00:02:50;;;;;;;3.25;1.17;;;21.10;81.80;;;;;;5038732;28;20035;-84
2023/08/22 00:05:16;;;;;;;3.05;1.00;;;21.10;81.90;;;;;;5022219;28;20029;-83
2023/08/22 00:07:42;;;;;;;4.93;1.10;;;21.10;82.00;;;;;;5038965;28;20032;-84
2023/08/22 00:10:09;;;;;;;5.53;1.05;;;21.10;82.10;;;;;;5022222;28;20099;-84
2023/08/22 00:12:35;;;;;;;2.38;1.08;;;21.10;82.30;;;;;;5039059;28;20033;-84
2023/08/22 00:15:01;;;;;;;4.65;1.40;;;21.10;83.10;;;;;;5022295;28;20051;-84
2023/08/22 00:17:26;;;;;;;3.50;1.25;;;21.00;82.70;;;;;;5038291;28;20021;-84
2023/08/22 00:19:52;;;;;;;3.50;1.10;;;21.00;82.90;;;;;;5038335;28;20103;-83
2023/08/22 00:22:18;;;;;;;3.58;1.30;;;21.00;83.10;;;;;;5021936;28;20499;-83
2023/08/22 00:24:43;;;;;;;6.18;1.60;;;21.00;83.20;;;;;;5021198;28;20021;-83
2023/08/22 00:27:11;;;;;;;4.57;1.40;;;20.90;83.30;;;;;;5038319;28;20028;-83
2023/08/22 00:29:37;;;;;;;3.85;1.35;;;20.90;83.30;;;;;;5022142;28;20041;-83
2023/08/22 00:32:03;;;;;;;3.40;1.20;;;20.90;83.40;;;;;;5021708;28;20436;-84
2023/08/22 00:34:29;;;;;;;3.20;1.20;;;20.90;83.40;;;;;;5021497;28;20025;-84
2023/08/22 00:36:55;;;;;;;3.63;1.20;;;20.90;83.60;;;;;;5038250;28;20075;-83
2023/08/22 00:39:20;;;;;;;4.28;1.35;;;20.90;83.80;;;;;;5021483;28;20477;-84
2023/08/22 00:41:46;;;;;;;3.95;1.15;;;20.80;84.00;;;;;;5037866;28;20036;-83
2023/08/22 00:44:12;;;;;;;3.83;1.45;;;20.80;84.30;;;;;;5037725;28;20029;-83
2023/08/22 00:46:38;;;;;;;2.72;1.10;;;20.80;84.40;;;;;;5021187;28;20025;-84
2023/08/22 00:49:10;;;;;;;5.72;1.77;;;20.80;84.50;;;;;;5021306;28;20389;-84
2023/08/22 00:51:40;;;;;;;4.40;1.67;;;20.70;84.50;;;;;;5037700;28;20116;-83
2023/08/22 00:54:06;;;;;;;6.72;1.60;;;20.70;84.60;;;;;;5037681;28;20295;-83
2023/08/22 00:56:34;;;;;;;6.65;1.58;;;20.70;84.60;;;;;;5055349;28;20037;-83
2023/08/22 00:59:01;;;;;;;4.32;1.52;;;20.70;84.80;;;;;;5037493;28;20071;-84
2023/08/22 01:01:27;;;;;;;6.60;1.77;;;20.60;84.80;;;;;;5037943;28;20445;-84
2023/08/22 01:03:52;;;;;;;5.43;1.40;;;20.60;85.10;;;;;;5037912;28;20160;-84
2023/08/22 01:06:43;;;;;;;5.25;1.50;;;20.60;85.30;;;;;;5021035;28;20025;-84
2023/08/22 01:09:18;;;;;;;3.47;1.20;;;20.60;85.70;;;;;;5037609;28;20029;-84
2023/08/22 01:11:47;;;;;;;3.60;1.25;;;20.50;86.00;;;;;;5055266;28;20023;-84
2023/08/22 01:14:19;;;;;;;3.38;1.02;;;20.50;86.30;;;;;;5037376;28;20017;-83
2023/08/22 01:16:47;;;;;;;2.65;0.93;;;20.50;86.50;;;;;;5037167;28;20044;-83
2023/08/22 01:19:17;;;;;;;3.50;1.50;;;20.50;86.70;;;;;;5037522;28;20124;-83
2023/08/22 01:21:52;;;;;;;4.55;1.40;;;20.50;86.80;;;;;;5037622;28;20017;-83
2023/08/22 01:24:18;;;;;;;4.32;1.35;;;20.50;86.90;;;;;;5038026;28;20453;-83
2023/08/22 01:26:47;;;;;;;4.38;1.30;;;20.40;86.80;;;;;;5021173;28;20029;-82
2023/08/22 01:29:26;;;;;;;3.50;1.67;;;20.30;86.90;;;;;;5038280;28;20115;-83
2023/08/22 01:32:16;;;;;;;4.82;1.55;;;20.30;87.10;;;;;;5037100;28;20183;-83
2023/08/22 01:34:44;;;;;;;5.47;1.42;;;20.30;87.10;;;;;;5054893;28;20518;-83
2023/08/22 01:37:11;;;;;;;3.33;1.08;;;20.20;87.00;;;;;;5053894;28;20025;-82
2023/08/22 01:39:39;;;;;;;4.55;1.40;;;20.20;87.10;;;;;;5036921;28;20485;-83
2023/08/22 01:42:05;;;;;;;3.70;1.10;;;20.20;87.10;;;;;;5036883;28;20021;-84
2023/08/22 01:44:31;;;;;;;6.53;1.38;;;20.10;87.10;;;;;;5036750;28;20120;-83
2023/08/22 01:46:57;;;;;;;3.75;1.17;;;20.10;87.10;;;;;;5020445;28;20106;-84
2023/08/22 01:49:22;;;;;;;3.85;1.60;;;20.10;87.30;;;;;;5020242;28;20036;-84
2023/08/22 01:51:48;;;;;;;3.88;1.08;;;20.10;87.50;;;;;;5037119;28;20021;-85
2023/08/22 01:54:14;;;;;;;4.15;1.48;;;20.10;87.90;;;;;;5021580;28;20039;-84
2023/08/22 01:56:40;;;;;;;2.55;1.17;;;20.10;88.20;;;;;;5037419;28;20087;-85
2023/08/22 01:59:05;;;;;;;3.72;1.42;;;20.10;88.50;;;;;;5037200;28;20505;-85
2023/08/22 02:01:31;;;;;;;5.57;1.27;;;20.10;88.70;;;;;;5036670;28;20063;-84
2023/08/22 02:04:03;;;;;;;3.97;1.60;;;20.10;89.00;;;;;;5019983;28;20495;-84
2023/08/22 02:06:29;;;;;;;4.00;1.27;;;20.10;89.30;;;;;;5020859;28;20477;-84
2023/08/22 02:08:54;;;;;;;4.18;1.45;;;20.10;89.50;;;;;;5019881;28;20087;-83
2023/08/22 02:11:20;;;;;;;4.13;1.10;;;20.10;89.70;;;;;;5020056;28;20083;-83
2023/08/22 02:13:46;;;;;;;2.90;1.20;;;20.10;89.80;;;;;;5037705;28;20025;-84
2023/08/22 02:16:12;;;;;;;3.00;0.98;;;20.10;89.80;;;;;;5019865;28;20043;-83
2023/08/22 02:18:38;;;;;;;5.90;1.30;;;20.10;89.80;;;;;;5054027;28;20088;-84
2023/08/22 02:21:03;;;;;;;7.20;1.48;;;20.10;90.00;;;;;;5036010;28;20025;-84
2023/08/22 02:23:31;;;;;;;4.25;1.20;;;20.10;90.00;;;;;;5019569;28;20097;-84
2023/08/22 02:25:57;;;;;;;3.53;1.30;;;20.10;90.10;;;;;;5020017;28;20025;-84
2023/08/22 02:28:22;;;;;;;2.40;1.13;;;20.00;90.10;;;;;;5036014;28;20029;-84
2023/08/22 02:30:53;;;;;;;2.78;1.08;;;20.00;90.20;;;;;;5035777;28;20056;-83
2023/08/22 02:33:18;;;;;;;3.10;1.02;;;20.00;90.30;;;;;;5043737;28;20034;-83
2023/08/22 02:35:44;;;;;;;3.83;1.02;;;19.90;90.30;;;;;;5053557;28;20110;-83
2023/08/22 02:38:10;;;;;;;6.63;1.10;;;19.80;90.30;;;;;;5035574;28;20033;-83
2023/08/22 02:40:35;;;;;;;3.65;1.10;;;19.80;90.40;;;;;;5035968;28;20029;-84
2023/08/22 02:43:01;;;;;;;3.42;1.10;;;19.80;90.40;;;;;;5035802;28;20033;-83
2023/08/22 02:45:27;;;;;;;4.68;1.25;;;19.80;90.50;;;;;;5052864;28;20029;-83
2023/08/22 02:47:53;;;;;;;3.65;1.20;;;19.70;90.50;;;;;;5051917;28;20036;-83
2023/08/22 02:50:19;;;;;;;4.15;1.38;;;19.70;90.60;;;;;;5052410;28;20100;-84
2023/08/22 02:52:44;;;;;;;3.67;1.35;;;19.70;90.70;;;;;;5035926;28;20092;-84
2023/08/22 02:55:10;;;;;;;4.88;1.15;;;19.60;90.80;;;;;;5052210;28;20473;-83
2023/08/22 02:57:36;;;;;;;5.40;1.42;;;19.60;90.90;;;;;;5035370;28;20049;-83
2023/08/22 03:00:04;;;;;;;4.35;1.20;;;19.60;91.00;;;;;;5035615;28;20553;-84
2023/08/22 03:02:30;;;;;;;3.90;1.10;;;19.60;91.00;;;;;;5053716;28;20021;-84
2023/08/22 03:04:56;;;;;;;5.15;1.52;;;19.60;91.10;;;;;;5035428;28;20095;-83
2023/08/22 03:07:22;;;;;;;3.45;1.15;;;19.50;91.10;;;;;;5035598;28;20554;-79
2023/08/22 03:09:47;;;;;;;4.88;1.67;;;19.50;91.20;;;;;;5053306;28;20040;-79
2023/08/22 03:12:13;;;;;;;4.60;1.55;;;19.50;91.20;;;;;;5035400;28;20103;-79
2023/08/22 03:14:39;;;;;;;5.15;1.50;;;19.40;91.30;;;;;;5035206;28;20032;-79
2023/08/22 03:17:04;;;;;;;3.95;1.58;;;19.40;91.40;;;;;;5052209;28;20037;-79
2023/08/22 03:19:30;;;;;;;5.00;1.63;;;19.40;91.40;;;;;;5035489;28;20025;-79
2023/08/22 03:21:55;;;;;;;7.43;1.70;;;19.30;91.50;;;;;;5035177;28;20037;-79
2023/08/22 03:24:21;;;;;;;4.80;1.80;;;19.30;91.50;;;;;;5051850;28;20029;-79
2023/08/22 03:26:47;;;;;;;6.63;1.77;;;19.20;91.50;;;;;;5035130;28;20039;-79
2023/08/22 03:29:12;;;;;;;4.15;1.50;;;19.20;91.60;;;;;;5034738;28;20048;-79
2023/08/22 03:31:38;;;;;;;5.47;1.98;;;19.20;91.60;;;;;;5038187;28;20033;-79
2023/08/22 03:34:04;;;;;;;3.78;1.52;;;19.20;91.70;;;;;;5055008;28;20028;-79
2023/08/22 03:36:31;;;;;;;4.95;2.05;;;19.10;91.80;;;;;;5037929;28;20025;-79
2023/08/22 03:38:57;;;;;;;5.95;1.80;;;19.10;91.90;;;;;;5055831;28;20021;-79
2023/08/22 03:41:22;;;;;;;5.53;1.83;;;19.10;92.10;;;;;;5038267;28;20522;-79
2023/08/22 03:43:48;;;;;;;5.85;2.25;;;19.10;92.20;;;;;;5038244;28;20036;-79
2023/08/22 03:46:14;;;;;;;3.97;1.50;;;19.10;92.30;;;;;;5038193;28;20028;-79
2023/08/22 03:48:39;;;;;;;5.93;2.20;;;19.10;92.40;;;;;;5055067;28;20032;-78
2023/08/22 03:51:06;;;;;;;5.82;1.77;;;19.00;92.50;;;;;;5038597;28;20380;-78
2023/08/22 03:53:34;;;;;;;5.47;1.63;;;19.00;92.70;;;;;;5072836;28;20021;-79
2023/08/22 03:55:59;;;;;;;6.88;1.70;;;19.00;92.80;;;;;;5054956;28;20103;-78
2023/08/22 03:58:25;;;;;;;2.75;1.13;;;19.00;93.00;;;;;;5052774;28;20128;-79
2023/08/22 04:00:54;;;;;;;5.53;1.48;;;19.00;93.00;;;;;;5040731;28;20052;-79
2023/08/22 04:03:20;;;;;;;3.40;1.48;;;18.90;93.00;;;;;;5058535;28;20136;-78
2023/08/22 04:05:46;;;;;;;5.43;1.63;;;19.00;93.10;;;;;;5058446;28;20472;-78
2023/08/22 04:08:11;;;;;;;5.25;1.92;;;18.90;93.20;;;;;;5041833;28;20185;-81
2023/08/22 04:10:37;;;;;;;3.53;1.70;;;18.90;93.30;;;;;;5041893;28;20024;-78
2023/08/22 04:13:03;;;;;;;4.32;1.50;;;18.90;93.40;;;;;;5041946;28;20033;-78
2023/08/22 04:15:28;;;;;;;4.00;1.42;;;18.90;93.50;;;;;;5042083;28;20159;-78
2023/08/22 04:17:54;;;;;;;4.85;1.50;;;18.90;93.60;;;;;;5041763;28;20121;-78
2023/08/22 04:20:20;;;;;;;4.55;1.50;;;18.80;93.70;;;;;;5058435;28;20049;-78
2023/08/22 04:22:45;;;;;;;5.32;1.45;;;18.80;93.90;;;;;;5058301;28;20013;-78
2023/08/22 04:25:11;;;;;;;5.05;2.00;;;18.80;93.90;;;;;;5041878;28;20029;-78
2023/08/22 04:27:38;;;;;;;3.78;1.55;;;18.80;94.10;;;;;;5041602;28;20490;-78
2023/08/22 04:30:05;;;;;;;3.38;1.58;;;18.80;94.20;;;;;;5058495;28;20497;-78
2023/08/22 04:32:31;;;;;;;4.97;2.28;;;18.80;94.40;;;;;;5041791;28;20037;-78
2023/08/22 04:34:57;;;;;;;7.38;2.08;;;18.80;94.50;;;;;;5058431;28;20028;-78
2023/08/22 04:37:23;;;;;;;3.88;1.92;;;18.80;94.60;;;;;;5041574;28;20443;-78
2023/08/22 04:39:48;;;;;;;4.05;1.70;;;18.80;94.60;;;;;;5058144;28;20108;-79
2023/08/22 04:42:14;;;;;;;4.15;1.98;;;18.80;94.70;;;;;;5041243;28;20025;-79
2023/08/22 04:44:39;;;;;;;5.00;1.70;;;18.70;94.70;;;;;;5041390;28;20028;-85
2023/08/22 04:47:05;;;;;;;4.95;1.85;;;18.70;94.80;;;;;;5041620;28;20029;-85
2023/08/22 04:49:31;;;;;;;5.95;1.90;;;18.70;94.90;;;;;;5058478;28;20036;-85
2023/08/22 04:51:56;;;;;;;4.47;2.08;;;18.70;94.90;;;;;;5041543;28;20024;-84
2023/08/22 04:54:22;;;;;;;5.97;2.13;;;18.70;95.10;;;;;;5058177;28;20032;-84
2023/08/22 04:56:48;;;;;;;4.15;1.73;;;18.70;95.20;;;;;;5041596;28;20542;-84
2023/08/22 04:59:13;;;;;;;3.90;1.90;;;18.70;95.30;;;;;;5037243;28;20057;-84
2023/08/22 05:01:39;;;;;;;5.00;1.77;;;18.70;95.40;;;;;;5037281;28;20119;-84
2023/08/22 05:04:05;;;;;;;3.72;2.03;;;18.70;95.40;;;;;;5055924;28;20521;-84
2023/08/22 05:06:30;;;;;;;6.60;1.90;;;18.70;95.50;;;;;;5056831;28;20025;-84
2023/08/22 05:08:56;;;;;;;5.97;1.77;;;18.60;95.60;;;;;;5024004;28;20020;-85
2023/08/22 05:11:22;;;;;;;4.45;1.92;;;18.60;95.60;;;;;;5057216;28;20024;-85
2023/08/22 05:13:47;;;;;;;4.40;1.95;;;18.60;95.70;;;;;;5024457;28;20056;-85
2023/08/22 05:16:13;;;;;;;3.70;1.83;;;18.60;95.70;;;;;;5039894;28;20460;-85
2023/08/22 05:18:39;;;;;;;4.82;1.85;;;18.60;95.70;;;;;;5040650;28;20028;-85
2023/08/22 05:21:05;;;;;;;3.75;1.98;;;18.50;95.70;;;;;;5040545;28;20138;-85
2023/08/22 05:23:31;;;;;;;4.20;1.95;;;18.50;95.80;;;;;;5057087;28;20017;-86
2023/08/22 05:25:57;;;;;;;4.68;2.08;;;18.50;95.90;;;;;;5053316;28;20493;-86
2023/08/22 05:28:22;;;;;;;4.15;1.88;;;18.50;96.10;;;;;;5041115;28;20055;-86
2023/08/22 05:30:48;;;;;;;4.97;2.08;;;18.50;96.20;;;;;;5042906;28;20029;-86
2023/08/22 05:33:14;;;;;;;6.07;3.47;;;18.50;96.30;;;;;;5054275;28;20052;-85
2023/08/22 05:35:39;;;;;;;5.10;2.67;;;18.50;96.40;;;;;;5058419;28;20028;-85
2023/08/22 05:38:05;;;;;;;8.68;2.65;;;18.50;96.50;;;;;;5030395;28;20040;-85
2023/08/22 05:40:31;;;;;;;5.32;3.35;;;18.60;96.60;;;;;;5037875;28;20389;-85
2023/08/22 05:42:59;;;;;;;8.90;3.92;;;18.60;96.70;;;;;;5025391;28;20016;-85
2023/08/22 05:45:24;;;;;;;8.20;4.07;;;18.60;96.80;;;;;;5043249;28;20016;-85
2023/08/22 05:47:50;;;;;;;7.78;4.90;;;18.60;96.90;;;;;;5076091;28;20495;-85
2023/08/22 05:50:16;;;;;;;10.98;5.00;;;18.60;97.00;;;;;;5060613;28;20032;-85
2023/08/22 05:52:41;;;;;;;8.57;5.00;;;18.70;97.00;;;;;;5063215;28;20047;-85
2023/08/22 05:55:07;;;;;;;11.45;6.18;;;18.70;97.10;;;;;;5078512;28;20491;-85
2023/08/22 05:57:33;;;;;;;9.55;5.63;;;18.70;97.20;;;;;;5075690;28;20399;-85
2023/08/22 06:00:00;;;;;;;11.50;6.55;;;18.80;97.30;;;;;;5060764;28;20078;-85
2023/08/22 06:02:26;;;;;;;12.20;6.40;;;18.80;97.40;;;;;;5052260;28;20020;-85
2023/08/22 06:04:52;;;;;;;8.93;6.65;;;18.90;97.40;;;;;;5081171;28;20034;-85
2023/08/22 06:07:17;;;;;;;14.13;7.03;;;18.90;97.40;;;;;;5095171;28;20035;-85
2023/08/22 06:09:43;;;;;;;11.45;6.90;;;19.00;97.40;;;;;;5076983;28;20115;-85
2023/08/22 06:12:11;;;;;;;12.65;6.40;;;19.00;97.40;;;;;;5059736;28;20024;-85
2023/08/22 06:14:37;;;;;;;17.73;7.35;;;19.10;97.40;;;;;;5076203;28;20032;-85
2023/08/22 06:17:03;;;;;;;11.10;7.30;;;19.10;97.40;;;;;;5076193;28;20021;-85
2023/08/22 06:19:29;;;;;;;12.55;7.90;;;19.10;97.40;;;;;;5076198;28;20098;-86
2023/08/22 06:21:54;;;;;;;13.63;7.60;;;19.10;97.40;;;;;;5059284;28;20382;-85
2023/08/22 06:24:20;;;;;;;9.50;6.43;;;19.20;97.50;;;;;;5059048;28;20147;-86
2023/08/22 06:26:48;;;;;;;13.30;7.32;;;19.20;97.50;;;;;;5075955;28;20066;-86
2023/08/22 06:29:13;;;;;;;12.63;7.68;;;19.30;97.50;;;;;;5076106;28;20032;-85
2023/08/22 06:31:39;;;;;;;11.35;6.65;;;19.30;97.50;;;;;;5076156;28;20356;-86
2023/08/22 06:34:05;;;;;;;9.65;7.03;;;19.40;97.50;;;;;;5076183;28;20028;-85
2023/08/22 06:36:30;;;;;;;10.05;6.70;;;19.50;97.60;;;;;;5059715;28;20039;-84
2023/08/22 06:38:56;;;;;;;12.13;6.47;;;19.50;97.50;;;;;;5076176;28;20020;-85
2023/08/22 06:41:22;;;;;;;10.98;6.97;;;19.60;97.50;;;;;;5076189;28;20073;-85
2023/08/22 06:43:48;;;;;;;11.98;7.80;;;19.70;97.40;;;;;;5054759;28;20024;-86
2023/08/22 06:46:15;;;;;;;15.77;7.18;;;19.80;97.70;;;;;;5056077;28;20020;-84
2023/08/22 06:48:41;;;;;;;12.43;6.38;;;19.80;97.20;;;;;;5076892;28;20024;-86
2023/08/22 06:51:07;;;;;;;9.35;5.70;;;19.80;97.10;;;;;;5084205;28;20361;-85
2023/08/22 06:53:34;;;;;;;8.30;4.70;;;19.90;97.10;;;;;;5049772;28;20533;-84
2023/08/22 06:56:00;;;;;;;9.43;5.68;;;20.00;97.00;;;;;;5054859;28;20028;-84
2023/08/22 06:58:25;;;;;;;11.07;5.93;;;20.10;96.80;;;;;;5043681;28;20495;-84
2023/08/22 07:00:52;;;;;;;10.23;5.22;;;20.20;96.60;;;;;;5077231;28;20028;-84
2023/08/22 07:03:17;;;;;;;7.57;4.50;;;20.20;96.50;;;;;;5062168;28;20376;-84
2023/08/22 07:05:43;;;;;;;6.97;3.25;;;20.30;96.30;;;;;;5060828;28;20024;-83
2023/08/22 07:08:09;;;;;;;8.68;4.65;;;20.40;96.10;;;;;;5076473;28;20096;-83
2023/08/22 07:10:35;;;;;;;7.00;4.00;;;20.40;95.70;;;;;;5052582;28;20471;-84
2023/08/22 07:13:01;;;;;;;9.20;4.47;;;20.40;95.50;;;;;;5055432;28;20024;-83
2023/08/22 07:15:27;;;;;;;10.85;4.55;;;20.50;95.30;;;;;;5055486;28;20017;-85
2023/08/22 07:17:53;;;;;;;7.38;3.63;;;20.50;95.10;;;;;;5046843;28;20446;-83
2023/08/22 07:20:19;;;;;;;5.63;3.08;;;20.60;95.00;;;;;;5055812;28;20104;-84
2023/08/22 07:22:45;;;;;;;8.45;3.05;;;20.60;94.60;;;;;;5030859;28;20040;-86
2023/08/22 07:25:11;;;;;;;5.82;2.70;;;20.70;94.40;;;;;;5055328;28;20027;-85
2023/08/22 07:27:37;;;;;;;7.63;3.30;;;20.80;94.20;;;;;;5030802;28;20025;-83
2023/08/22 07:30:03;;;;;;;6.65;3.38;;;20.90;94.00;;;;;;5051420;28;20028;-85
2023/08/22 07:32:29;;;;;;;5.32;2.80;;;20.90;93.60;;;;;;5055834;28;20524;-84
2023/08/22 07:34:56;;;;;;;6.85;2.78;;;21.00;93.30;;;;;;5059012;28;20028;-84
2023/08/22 07:37:22;;;;;;;6.10;2.53;;;21.00;93.10;;;;;;5059829;28;20020;-82
2023/08/22 07:39:48;;;;;;;6.43;2.13;;;21.10;92.90;;;;;;5040229;28;20111;-83
2023/08/22 07:42:13;;;;;;;4.07;1.52;;;21.20;92.70;;;;;;5059677;28;20051;-85
2023/08/22 07:44:39;;;;;;;6.03;1.75;;;21.30;92.20;;;;;;5059296;28;20371;-83
2023/08/22 07:47:05;;;;;;;4.10;1.33;;;21.30;91.70;;;;;;5059064;28;20498;-84
2023/08/22 07:49:30;;;;;;;3.90;1.50;;;21.50;91.40;;;;;;5059305;28;20023;-86
2023/08/22 07:51:56;;;;;;;5.47;1.60;;;21.60;90.70;;;;;;5059626;28;20419;-83
2023/08/22 07:54:22;;;;;;;4.03;1.55;;;21.70;89.40;;;;;;5077505;28;20032;-82
2023/08/22 07:56:48;;;;;;;3.50;1.30;;;21.80;89.50;;;;;;5042763;28;20025;-80
2023/08/22 07:59:13;;;;;;;5.85;1.77;;;21.80;89.00;;;;;;5042365;28;20047;-82
2023/08/22 08:01:40;;;;;;;4.63;1.40;;;21.90;88.00;;;;;;5027182;28;20491;-85
2023/08/22 08:04:08;;;;;;;3.95;1.20;;;22.00;87.70;;;;;;5058768;28;20024;-82
2023/08/22 08:06:34;;;;;;;4.95;0.93;;;22.10;86.50;;;;;;5042568;28;20138;-85
2023/08/22 08:09:01;;;;;;;4.45;0.85;;;22.20;85.60;;;;;;5058817;28;20020;-85
2023/08/22 08:11:30;;;;;;;3.72;0.82;;;22.30;84.70;;;;;;5058681;28;20017;-87
2023/08/22 08:13:56;;;;;;;3.92;0.73;;;22.40;83.40;;;;;;5058933;28;20031;-83
2023/08/22 08:16:23;;;;;;;2.70;0.60;;;22.50;82.10;;;;;;5059726;28;20111;-85
2023/08/22 08:18:50;;;;;;;3.47;0.75;;;22.50;81.30;;;;;;5059160;28;20024;-82
2023/08/22 08:21:16;;;;;;;2.30;0.50;;;22.60;80.00;;;;;;5043358;28;20059;-86
2023/08/22 08:23:44;;;;;;;2.00;0.70;;;22.60;80.20;;;;;;5059805;28;20025;-83
2023/08/22 08:26:10;;;;;;;3.17;0.70;;;22.70;80.00;;;;;;5039407;28;20036;-83
2023/08/22 08:28:35;;;;;;;2.35;0.90;;;22.70;79.70;;;;;;5055786;28;20021;-87
2023/08/22 08:31:02;;;;;;;2.95;0.90;;;22.80;80.10;;;;;;5055860;28;20380;-85
2023/08/22 08:33:27;;;;;;;3.28;0.70;;;22.80;79.10;;;;;;5055913;28;20116;-83
2023/08/22 08:35:53;;;;;;;3.83;0.70;;;22.90;78.90;;;;;;5039124;28;20056;-86
2023/08/22 08:38:19;;;;;;;2.65;0.77;;;23.00;78.50;;;;;;5056267;28;20033;-84
2023/08/22 08:40:46;;;;;;;6.30;1.35;;;23.00;77.90;;;;;;5058745;28;20075;-87
2023/08/22 08:43:12;;;;;;;5.47;1.42;;;23.00;77.50;;;;;;5058076;28;20021;-88
2023/08/22 08:45:39;;;;;;;5.82;1.10;;;23.00;77.00;;;;;;5056348;28;20024;-88
2023/08/22 08:48:06;;;;;;;4.68;0.90;;;23.00;76.60;;;;;;5058240;28;20021;-90
2023/08/22 08:50:33;;;;;;;2.55;0.70;;;23.00;76.50;;;;;;5057586;28;20025;-88
2023/08/22 08:52:59;;;;;;;2.90;0.60;;;23.10;76.60;;;;;;5058135;28;20051;-89
2023/08/22 08:55:25;;;;;;;2.67;0.60;;;23.10;76.40;;;;;;5057724;28;20025;-83
2023/08/22 08:57:56;;;;;;;6.38;0.68;;;23.20;76.30;;;;;;5040275;28;20039;-85
2023/08/22 09:00:22;;;;;;;2.90;0.80;;;23.20;75.30;;;;;;5041664;28;20209;-86
2023/08/22 09:02:48;;;;;;;2.67;0.70;;;23.20;74.30;;;;;;5075780;28;20103;-83
2023/08/22 09:05:15;;;;;;;4.80;0.80;;;23.30;74.50;;;;;;5041275;28;20472;-85
2023/08/22 09:07:43;;;;;;;1.90;0.60;;;23.30;74.10;;;;;;5057845;28;20025;-88
2023/08/22 09:10:09;;;;;;;3.35;1.00;;;23.40;74.10;;;;;;5041595;28;20060;-80
2023/08/22 09:12:36;;;;;;;4.05;0.85;;;23.40;73.80;;;;;;5057901;28;20040;-86
2023/08/22 09:15:02;;;;;;;4.43;1.30;;;23.40;73.80;;;;;;5057608;28;20021;-86
2023/08/22 09:17:31;;;;;;;6.03;1.30;;;23.40;73.40;;;;;;5058231;28;20510;-85
2023/08/22 09:19:57;;;;;;;4.03;1.00;;;23.50;73.50;;;;;;5041277;28;20021;-88
2023/08/22 09:22:30;;;;;;;4.85;1.25;;;23.60;73.10;;;;;;5058217;28;20031;-88
2023/08/22 09:24:56;;;;;;;6.75;1.40;;;23.60;73.20;;;;;;5057668;28;20020;-82
2023/08/22 09:27:25;;;;;;;7.22;1.45;;;23.70;72.90;;;;;;5041830;28;20028;-89
2023/08/22 09:29:51;;;;;;;7.78;1.27;;;23.80;72.20;;;;;;5041347;28;20033;-88
2023/08/22 09:32:20;;;;;;;6.35;1.23;;;23.80;72.20;;;;;;5058147;28;20028;-88
2023/08/22 09:34:56;;;;;;;6.18;1.40;;;23.80;72.50;;;;;;5057461;28;20476;-84
2023/08/22 09:37:35;;;;;;;4.60;1.38;;;24.00;72.10;;;;;;5057103;28;20025;-84
2023/08/22 09:40:03;;;;;;;5.15;1.13;;;24.00;71.70;;;;;;5057493;28;20468;-85
2023/08/22 09:42:30;;;;;;;4.68;1.15;;;24.10;70.90;;;;;;5058119;28;20478;-88
2023/08/22 09:44:57;;;;;;;6.00;1.48;;;24.10;70.50;;;;;;5057714;28;20027;-89
2023/08/22 09:47:29;;;;;;;5.43;1.15;;;24.10;70.50;;;;;;5057129;28;20116;-84
2023/08/22 09:49:59;;;;;;;3.63;1.02;;;24.10;69.80;;;;;;5057400;28;20029;-83
2023/08/22 09:52:26;;;;;;;3.55;0.98;;;24.20;69.10;;;;;;5065864;28;20110;-87
2023/08/22 09:54:55;;;;;;;4.75;1.38;;;24.30;69.20;;;;;;5064421;28;20021;-88
2023/08/22 09:57:23;;;;;;;3.13;1.00;;;24.40;69.40;;;;;;5058427;28;20115;-85
2023/08/22 09:59:49;;;;;;;5.43;1.30;;;24.50;69.20;;;;;;5059844;28;20420;-85
2023/08/22 10:02:18;;;;;;;4.03;0.98;;;24.50;68.80;;;;;;5064056;28;20024;-84
2023/08/22 10:04:44;;;;;;;4.10;1.00;;;24.50;68.00;;;;;;5062269;28;20039;-85
2023/08/22 10:07:10;;;;;;;3.70;0.60;;;24.60;67.90;;;;;;5041279;28;20025;-85
2023/08/22 10:09:38;;;;;;;2.30;0.50;;;24.60;67.90;;;;;;5040397;28;20430;-84
2023/08/22 10:12:07;;;;;;;5.45;1.25;;;24.70;67.40;;;;;;5056836;28;20044;-84
2023/08/22 10:14:41;;;;;;;2.58;0.65;;;24.80;66.70;;;;;;5057196;28;20070;-86
2023/08/22 10:17:14;;;;;;;1.58;0.55;;;24.90;66.90;;;;;;5056372;28;20489;-87
2023/08/22 10:19:41;;;;;;;3.47;0.80;;;25.00;66.90;;;;;;5056755;28;20013;-83
2023/08/22 10:22:12;;;;;;;4.35;0.77;;;25.20;66.50;;;;;;5056862;28;20357;-85
2023/08/22 10:24:40;;;;;;;2.38;0.80;;;25.30;66.10;;;;;;5040753;28;20017;-86
2023/08/22 10:27:15;;;;;;;6.07;0.80;;;25.60;66.30;;;;;;5056346;28;20024;-86
2023/08/22 10:29:45;;;;;;;3.00;0.70;;;25.90;65.30;;;;;;5056001;28;20052;-78
2023/08/22 10:32:10;;;;;;;3.92;0.80;;;26.00;63.30;;;;;;5056378;28;20016;-86
2023/08/22 10:34:40;;;;;;;2.47;0.63;;;26.20;63.60;;;;;;5056500;28;20021;-86
2023/08/22 10:37:13;;;;;;;4.82;0.85;;;26.20;62.30;;;;;;5056197;28;20032;-86
2023/08/22 10:39:40;;;;;;;4.00;0.80;;;26.40;62.10;;;;;;5056240;28;20017;-81
2023/08/22 10:42:12;;;;;;;4.07;0.75;;;26.60;61.10;;;;;;5056141;28;20027;-86
2023/08/22 10:44:38;;;;;;;3.72;0.60;;;26.60;60.40;;;;;;5055989;28;20021;-86
2023/08/22 10:47:14;;;;;;;2.35;0.50;;;26.60;60.20;;;;;;5039572;28;20039;-87
2023/08/22 10:49:40;;;;;;;2.30;0.30;;;26.70;60.00;;;;;;5056121;28;20060;-86
2023/08/22 10:52:11;;;;;;;1.45;0.30;;;26.90;59.40;;;;;;5056379;28;20024;-89
2023/08/22 10:54:55;;;;;;;1.23;0.40;;;27.20;59.10;;;;;;5056994;28;20083;-88
2023/08/22 10:57:21;;;;;;;1.10;0.40;;;27.60;59.00;;;;;;5055967;28;20166;-82
2023/08/22 10:59:58;;;;;;;2.33;0.38;;;27.80;57.70;;;;;;5039828;28;20086;-82
2023/08/22 11:02:35;;;;;;;1.85;0.30;;;27.70;57.10;;;;;;5056179;28;20033;-87
2023/08/22 11:05:03;;;;;;;2.40;0.40;;;27.60;56.60;;;;;;5058395;28;20028;-86
2023/08/22 11:07:30;;;;;;;2.17;0.40;;;27.50;56.20;;;;;;5057211;28;20472;-83
2023/08/22 11:09:56;;;;;;;1.75;0.40;;;27.40;56.30;;;;;;5039064;28;20480;-77
2023/08/22 11:12:27;;;;;;;2.17;0.30;;;27.30;56.10;;;;;;5073363;28;20037;-83
2023/08/22 11:14:54;;;;;;;1.80;0.43;;;27.10;56.10;;;;;;5039441;28;20033;-83
2023/08/22 11:17:21;;;;;;;1.55;0.38;;;27.00;56.30;;;;;;5034417;28;20124;-81
2023/08/22 11:19:54;;;;;;;1.45;0.30;;;27.00;56.30;;;;;;5072221;28;20050;-87
2023/08/22 11:22:20;;;;;;;1.20;0.30;;;27.10;56.50;;;;;;5054197;28;20020;-83
2023/08/22 11:24:49;;;;;;;3.80;0.50;;;27.20;56.30;;;;;;5054832;28;20046;-82
2023/08/22 11:27:15;;;;;;;1.80;0.30;;;27.30;56.40;;;;;;5036820;28;20025;-88
2023/08/22 11:29:46;;;;;;;1.60;0.28;;;27.50;56.50;;;;;;5055193;28;20021;-84
2023/08/22 11:32:32;;;;;;;2.08;0.40;;;27.70;55.50;;;;;;5041757;28;20029;-84
2023/08/22 11:35:00;;;;;;;2.03;0.40;;;27.80;54.30;;;;;;5072692;28;20483;-82
2023/08/22 11:37:36;;;;;;;1.70;0.35;;;27.80;54.40;;;;;;5072629;28;20027;-88
2023/08/22 11:40:10;;;;;;;2.30;0.25;;;27.80;54.70;;;;;;5040285;28;20089;-86
2023/08/22 11:42:36;;;;;;;;;;;27.80;54.20;;;;;;5056046;28;20058;-86
2023/08/22 11:45:04;;;;;;;1.67;0.20;;;27.90;53.90;;;;;;5054467;28;19958;-80
2023/08/22 11:47:49;;;;;;;1.95;0.30;;;27.90;53.90;;;;;;5054996;28;20035;-83
2023/08/22 11:50:17;;;;;;;2.85;0.30;;;28.10;53.90;;;;;;5052781;28;20031;-83
2023/08/22 11:52:44;;;;;;;3.50;0.50;;;28.30;54.10;;;;;;5073135;28;20024;-83
2023/08/22 11:55:11;;;;;;;1.58;0.52;;;28.40;53.80;;;;;;5055027;28;20074;-83
2023/08/22 11:57:39;;;;;;;3.33;0.60;;;28.40;53.30;;;;;;5072606;28;20023;-83
2023/08/22 12:00:07;;;;;;;2.97;0.60;;;28.40;53.00;;;;;;5054869;28;20197;-84
2023/08/22 12:02:33;;;;;;;2.72;0.50;;;28.30;53.20;;;;;;5054731;28;20123;-82
2023/08/22 12:04:59;;;;;;;3.08;0.43;;;28.10;53.60;;;;;;5038581;28;20035;-83
2023/08/22 12:07:25;;;;;;;1.80;0.30;;;28.00;54.00;;;;;;5038130;28;20111;-83
2023/08/22 12:10:03;;;;;;;3.50;0.57;;;28.00;54.50;;;;;;5054988;28;20029;-82
2023/08/22 12:12:30;;;;;;;1.85;0.50;;;28.10;54.70;;;;;;5054872;28;20052;-82
2023/08/22 12:14:56;;;;;;;3.20;0.60;;;28.30;54.80;;;;;;5038600;28;20078;-85
2023/08/22 12:17:22;;;;;;;2.50;0.60;;;28.40;54.90;;;;;;5038618;28;20033;-81
2023/08/22 12:19:48;;;;;;;1.95;0.65;;;28.50;54.90;;;;;;5055120;28;20025;-83
2023/08/22 12:22:14;;;;;;;2.05;0.57;;;28.50;54.90;;;;;;5041379;28;20032;-84
2023/08/22 12:24:42;;;;;;;2.75;0.68;;;28.60;55.00;;;;;;5058781;28;20017;-80
2023/08/22 12:27:08;;;;;;;2.38;0.75;;;28.60;55.00;;;;;;5043194;28;20098;-82
2023/08/22 12:29:33;;;;;;;1.67;0.47;;;28.60;55.10;;;;;;5042070;28;20480;-83
2023/08/22 12:31:59;;;;;;;3.15;0.70;;;28.60;55.20;;;;;;5042717;28;20499;-82
2023/08/22 12:34:25;;;;;;;2.90;0.60;;;28.60;55.10;;;;;;5058964;28;20082;-82
2023/08/22 12:36:51;;;;;;;1.90;0.60;;;28.60;55.10;;;;;;5041597;28;20039;-81
2023/08/22 12:39:17;;;;;;;2.05;0.50;;;28.50;55.20;;;;;;5041392;28;20024;-81
2023/08/22 12:41:43;;;;;;;2.22;0.50;;;28.40;55.20;;;;;;5042418;28;20055;-83
2023/08/22 12:44:09;;;;;;;2.83;0.80;;;28.40;55.50;;;;;;5041342;28;20021;-83